sensor_id;sensor_type;location;lat;lon;timestamp;pressure;altitude;pressure_sealevel;temperature;humidity
71149;BME280;59072;42.144;25.200;2023-06-14T00:00:37;99709.22;;;21.62;81.75
71149;BME280;59072;42.144;25.200;2023-06-14T00:03:10;99712.63;;;21.68;81.36
71149;BME280;59072;42.144;25.200;2023-06-14T00:05:37;99704.16;;;21.97;80.97
71149;BME280;59072;42.144;25.200;2023-06-14T00:08:10;99715.41;;;22.04;81.07
71149;BME280;59072;42.144;25.200;2023-06-14T00:10:36;99705.38;;;21.91;81.93
71149;BME280;59072;42.144;25.200;2023-06-14T00:13:03;99704.59;;;21.91;81.26
71149;BME280;59072;42.144;25.200;2023-06-14T00:15:32;99708.59;;;21.65;83.16
71149;BME280;59072;42.144;25.200;2023-06-14T00:17:58;99705.91;;;21.52;83.76
71149;BME280;59072;42.144;25.200;2023-06-14T00:20:26;99706.59;;;21.43;83.92
71149;BME280;59072;42.144;25.200;2023-06-14T00:22:53;99704.56;;;21.49;82.84
71149;BME280;59072;42.144;25.200;2023-06-14T00:25:19;99699.50;;;21.28;84.26
71149;BME280;59072;42.144;25.200;2023-06-14T00:27:44;99705.97;;;21.46;83.18
71149;BME280;59072;42.144;25.200;2023-06-14T00:30:10;99691.13;;;21.44;82.73
71149;BME280;59072;42.144;25.200;2023-06-14T00:32:36;99693.38;;;21.37;83.66
71149;BME280;59072;42.144;25.200;2023-06-14T00:35:01;99700.09;;;21.25;83.28
71149;BME280;59072;42.144;25.200;2023-06-14T00:37:27;99695.25;;;21.22;81.83
71149;BME280;59072;42.144;25.200;2023-06-14T00:39:52;99697.88;;;21.14;82.92
71149;BME280;59072;42.144;25.200;2023-06-14T00:42:28;99707.94;;;21.41;82.07
71149;BME280;59072;42.144;25.200;2023-06-14T00:44:54;99688.25;;;21.21;82.07
71149;BME280;59072;42.144;25.200;2023-06-14T00:47:19;99696.06;;;21.09;82.84
71149;BME280;59072;42.144;25.200;2023-06-14T00:49:46;99693.75;;;21.16;81.96
71149;BME280;59072;42.144;25.200;2023-06-14T00:52:13;99689.97;;;20.84;83.44
71149;BME280;59072;42.144;25.200;2023-06-14T00:54:40;99689.53;;;20.77;84.14
71149;BME280;59072;42.144;25.200;2023-06-14T00:57:06;99695.69;;;20.83;83.40
71149;BME280;59072;42.144;25.200;2023-06-14T00:59:32;99688.56;;;20.87;83.49
71149;BME280;59072;42.144;25.200;2023-06-14T01:01:58;99692.00;;;20.93;83.11
71149;BME280;59072;42.144;25.200;2023-06-14T01:04:24;99687.41;;;21.07;81.65
71149;BME280;59072;42.144;25.200;2023-06-14T01:09:40;99682.13;;;20.83;83.69
71149;BME280;59072;42.144;25.200;2023-06-14T01:12:16;99679.13;;;20.98;82.35
71149;BME280;59072;42.144;25.200;2023-06-14T01:14:48;99677.13;;;20.90;82.62
71149;BME280;59072;42.144;25.200;2023-06-14T01:17:14;99674.88;;;20.78;83.63
71149;BME280;59072;42.144;25.200;2023-06-14T01:19:43;99686.53;;;20.79;83.71
71149;BME280;59072;42.144;25.200;2023-06-14T01:22:11;99683.53;;;20.80;83.16
71149;BME280;59072;42.144;25.200;2023-06-14T01:24:36;99677.28;;;20.80;84.20
71149;BME280;59072;42.144;25.200;2023-06-14T01:27:05;99672.53;;;20.91;83.24
71149;BME280;59072;42.144;25.200;2023-06-14T01:29:32;99680.50;;;20.82;83.43
71149;BME280;59072;42.144;25.200;2023-06-14T01:31:58;99684.56;;;20.65;84.76
71149;BME280;59072;42.144;25.200;2023-06-14T01:34:25;99668.91;;;20.43;86.25
71149;BME280;59072;42.144;25.200;2023-06-14T01:36:52;99661.94;;;20.56;84.94
71149;BME280;59072;42.144;25.200;2023-06-14T01:39:21;99675.06;;;20.68;84.19
71149;BME280;59072;42.144;25.200;2023-06-14T01:41:49;99665.81;;;20.50;84.97
71149;BME280;59072;42.144;25.200;2023-06-14T01:44:17;99658.44;;;20.56;84.97
71149;BME280;59072;42.144;25.200;2023-06-14T01:46:43;99666.09;;;20.48;86.37
71149;BME280;59072;42.144;25.200;2023-06-14T01:49:10;99658.63;;;20.78;84.79
71149;BME280;59072;42.144;25.200;2023-06-14T01:51:36;99655.13;;;20.59;85.18
71149;BME280;59072;42.144;25.200;2023-06-14T01:54:01;99655.28;;;20.48;85.98
71149;BME280;59072;42.144;25.200;2023-06-14T01:56:27;99661.25;;;20.83;84.95
71149;BME280;59072;42.144;25.200;2023-06-14T01:58:53;99667.16;;;20.85;83.97
71149;BME280;59072;42.144;25.200;2023-06-14T02:01:19;99669.47;;;20.78;84.87
71149;BME280;59072;42.144;25.200;2023-06-14T02:03:47;99671.34;;;20.64;85.16
71149;BME280;59072;42.144;25.200;2023-06-14T02:06:13;99671.28;;;20.83;84.34
71149;BME280;59072;42.144;25.200;2023-06-14T02:08:39;99670.50;;;20.44;86.51
71149;BME280;59072;42.144;25.200;2023-06-14T02:11:05;99653.38;;;20.30;87.71
71149;BME280;59072;42.144;25.200;2023-06-14T02:13:30;99676.88;;;20.16;89.16
71149;BME280;59072;42.144;25.200;2023-06-14T02:15:56;99673.75;;;20.09;90.15
71149;BME280;59072;42.144;25.200;2023-06-14T02:18:23;99670.22;;;20.27;89.00
71149;BME280;59072;42.144;25.200;2023-06-14T02:20:48;99671.41;;;20.59;86.26
71149;BME280;59072;42.144;25.200;2023-06-14T02:23:14;99669.78;;;20.20;88.90
71149;BME280;59072;42.144;25.200;2023-06-14T02:25:40;99674.16;;;20.16;89.27
71149;BME280;59072;42.144;25.200;2023-06-14T02:28:06;99667.63;;;19.98;90.97
71149;BME280;59072;42.144;25.200;2023-06-14T02:30:31;99670.75;;;20.29;89.14
71149;BME280;59072;42.144;25.200;2023-06-14T02:32:57;99680.75;;;20.10;90.26
71149;BME280;59072;42.144;25.200;2023-06-14T02:35:22;99681.34;;;20.06;90.50
71149;BME280;59072;42.144;25.200;2023-06-14T02:37:52;99669.97;;;19.85;91.64
71149;BME280;59072;42.144;25.200;2023-06-14T02:40:20;99689.22;;;19.84;91.73
71149;BME280;59072;42.144;25.200;2023-06-14T02:42:46;99684.38;;;19.81;92.46
71149;BME280;59072;42.144;25.200;2023-06-14T02:45:11;99683.94;;;19.74;92.68
71149;BME280;59072;42.144;25.200;2023-06-14T02:47:36;99686.13;;;19.72;92.60
71149;BME280;59072;42.144;25.200;2023-06-14T02:50:02;99691.59;;;19.61;93.85
71149;BME280;59072;42.144;25.200;2023-06-14T02:52:28;99686.81;;;19.53;95.30
71149;BME280;59072;42.144;25.200;2023-06-14T02:54:54;99693.72;;;19.64;94.71
71149;BME280;59072;42.144;25.200;2023-06-14T02:57:23;99689.13;;;19.65;94.96
71149;BME280;59072;42.144;25.200;2023-06-14T02:59:48;99690.97;;;19.70;94.50
71149;BME280;59072;42.144;25.200;2023-06-14T03:02:14;99691.34;;;19.34;97.15
71149;BME280;59072;42.144;25.200;2023-06-14T03:04:39;99693.50;;;19.61;95.81
71149;BME280;59072;42.144;25.200;2023-06-14T03:07:06;99701.47;;;19.47;96.37
71149;BME280;59072;42.144;25.200;2023-06-14T03:09:35;99704.16;;;19.52;96.85
71149;BME280;59072;42.144;25.200;2023-06-14T03:12:01;99694.06;;;19.34;96.75
71149;BME280;59072;42.144;25.200;2023-06-14T03:14:28;99714.97;;;19.52;97.12
71149;BME280;59072;42.144;25.200;2023-06-14T03:16:54;99710.47;;;19.66;95.65
71149;BME280;59072;42.144;25.200;2023-06-14T03:19:22;99710.06;;;19.54;96.61
71149;BME280;59072;42.144;25.200;2023-06-14T03:21:48;99717.72;;;19.76;95.51
71149;BME280;59072;42.144;25.200;2023-06-14T03:24:14;99707.75;;;19.72;95.24
71149;BME280;59072;42.144;25.200;2023-06-14T03:26:41;99707.97;;;19.75;95.64
71149;BME280;59072;42.144;25.200;2023-06-14T03:29:07;99709.34;;;19.73;95.06
71149;BME280;59072;42.144;25.200;2023-06-14T03:31:34;99708.06;;;19.89;94.28
71149;BME280;59072;42.144;25.200;2023-06-14T03:34:00;99708.53;;;19.96;92.34
71149;BME280;59072;42.144;25.200;2023-06-14T03:36:26;99720.53;;;19.90;93.48
71149;BME280;59072;42.144;25.200;2023-06-14T03:38:51;99722.00;;;19.77;94.33
71149;BME280;59072;42.144;25.200;2023-06-14T03:41:16;99721.22;;;19.77;94.16
71149;BME280;59072;42.144;25.200;2023-06-14T03:43:42;99723.63;;;20.02;93.05
71149;BME280;59072;42.144;25.200;2023-06-14T03:46:07;99713.09;;;19.77;93.64
71149;BME280;59072;42.144;25.200;2023-06-14T03:48:33;99729.81;;;19.84;93.41
71149;BME280;59072;42.144;25.200;2023-06-14T03:50:58;99729.44;;;19.91;92.50
71149;BME280;59072;42.144;25.200;2023-06-14T03:53:24;99738.72;;;19.84;92.98
71149;BME280;59072;42.144;25.200;2023-06-14T03:55:50;99743.13;;;19.99;91.76
71149;BME280;59072;42.144;25.200;2023-06-14T03:58:17;99746.44;;;19.96;92.43
71149;BME280;59072;42.144;25.200;2023-06-14T04:00:43;99744.44;;;20.02;92.40
71149;BME280;59072;42.144;25.200;2023-06-14T04:03:08;99742.63;;;19.97;94.26
71149;BME280;59072;42.144;25.200;2023-06-14T04:05:33;99746.19;;;19.93;94.83
71149;BME280;59072;42.144;25.200;2023-06-14T04:07:59;99745.88;;;19.70;96.16
71149;BME280;59072;42.144;25.200;2023-06-14T04:10:26;99752.19;;;19.90;95.89
71149;BME280;59072;42.144;25.200;2023-06-14T04:12:51;99737.91;;;19.84;95.83
71149;BME280;59072;42.144;25.200;2023-06-14T04:15:17;99741.88;;;19.92;95.34
71149;BME280;59072;42.144;25.200;2023-06-14T04:17:43;99754.81;;;20.19;93.23
71149;BME280;59072;42.144;25.200;2023-06-14T04:20:08;99751.31;;;20.37;91.83
71149;BME280;59072;42.144;25.200;2023-06-14T04:22:35;99754.69;;;20.29;92.71
71149;BME280;59072;42.144;25.200;2023-06-14T04:25:01;99758.22;;;20.05;93.46
71149;BME280;59072;42.144;25.200;2023-06-14T04:27:27;99764.63;;;20.15;94.37
71149;BME280;59072;42.144;25.200;2023-06-14T04:29:54;99761.41;;;20.13;93.05
71149;BME280;59072;42.144;25.200;2023-06-14T04:32:28;99766.28;;;20.54;91.46
71149;BME280;59072;42.144;25.200;2023-06-14T04:34:59;99765.53;;;20.29;93.28
71149;BME280;59072;42.144;25.200;2023-06-14T04:37:27;99764.28;;;20.40;92.31
71149;BME280;59072;42.144;25.200;2023-06-14T04:39:55;99766.31;;;20.30;93.19
71149;BME280;59072;42.144;25.200;2023-06-14T04:42:21;99765.53;;;20.29;91.98
71149;BME280;59072;42.144;25.200;2023-06-14T04:44:51;99774.59;;;20.38;89.75
71149;BME280;59072;42.144;25.200;2023-06-14T04:47:17;99779.56;;;20.31;89.67
71149;BME280;59072;42.144;25.200;2023-06-14T04:49:43;99783.38;;;20.30;89.13
71149;BME280;59072;42.144;25.200;2023-06-14T04:52:10;99774.16;;;20.31;88.54
71149;BME280;59072;42.144;25.200;2023-06-14T04:54:39;99782.66;;;20.43;87.92
71149;BME280;59072;42.144;25.200;2023-06-14T04:57:07;99783.22;;;20.64;87.27
71149;BME280;59072;42.144;25.200;2023-06-14T04:59:32;99786.41;;;20.85;86.68
71149;BME280;59072;42.144;25.200;2023-06-14T05:02:01;99781.16;;;20.75;86.93
71149;BME280;59072;42.144;25.200;2023-06-14T05:04:26;99784.81;;;20.84;86.57
71149;BME280;59072;42.144;25.200;2023-06-14T05:06:53;99792.13;;;21.03;83.96
71149;BME280;59072;42.144;25.200;2023-06-14T05:09:20;99794.69;;;21.13;83.64
71149;BME280;59072;42.144;25.200;2023-06-14T05:11:46;99803.78;;;21.36;81.65
71149;BME280;59072;42.144;25.200;2023-06-14T05:14:13;99796.56;;;21.92;81.41
71149;BME280;59072;42.144;25.200;2023-06-14T05:16:39;99804.91;;;21.68;79.18
71149;BME280;59072;42.144;25.200;2023-06-14T05:19:05;99805.72;;;21.82;78.93
71149;BME280;59072;42.144;25.200;2023-06-14T05:21:31;99806.94;;;21.76;78.42
71149;BME280;59072;42.144;25.200;2023-06-14T05:23:58;99810.31;;;21.82;74.82
71149;BME280;59072;42.144;25.200;2023-06-14T05:26:24;99811.66;;;21.98;73.95
71149;BME280;59072;42.144;25.200;2023-06-14T05:28:56;99815.28;;;22.49;75.02
71149;BME280;59072;42.144;25.200;2023-06-14T05:31:25;99818.47;;;22.65;73.06
71149;BME280;59072;42.144;25.200;2023-06-14T05:33:51;99825.81;;;22.78;72.11
71149;BME280;59072;42.144;25.200;2023-06-14T05:36:16;99832.69;;;22.48;71.87
71149;BME280;59072;42.144;25.200;2023-06-14T05:38:42;99823.03;;;22.56;71.52
71149;BME280;59072;42.144;25.200;2023-06-14T05:41:07;99826.94;;;23.00;69.96
71149;BME280;59072;42.144;25.200;2023-06-14T05:43:32;99827.66;;;22.92;71.56
71149;BME280;59072;42.144;25.200;2023-06-14T05:45:58;99823.00;;;23.06;71.44
71149;BME280;59072;42.144;25.200;2023-06-14T05:48:23;99830.31;;;23.19;68.15
71149;BME280;59072;42.144;25.200;2023-06-14T05:50:49;99836.00;;;23.54;66.91
71149;BME280;59072;42.144;25.200;2023-06-14T05:53:14;99835.84;;;23.59;68.02
71149;BME280;59072;42.144;25.200;2023-06-14T05:55:40;99833.66;;;23.16;69.18
71149;BME280;59072;42.144;25.200;2023-06-14T05:58:05;99836.25;;;23.21;69.62
71149;BME280;59072;42.144;25.200;2023-06-14T06:00:31;99847.00;;;23.49;67.30
71149;BME280;59072;42.144;25.200;2023-06-14T06:02:56;99837.41;;;23.52;67.53
71149;BME280;59072;42.144;25.200;2023-06-14T06:05:26;99843.25;;;23.90;68.61
71149;BME280;59072;42.144;25.200;2023-06-14T06:07:51;99827.16;;;24.11;67.27
71149;BME280;59072;42.144;25.200;2023-06-14T06:10:16;99836.63;;;24.14;65.69
71149;BME280;59072;42.144;25.200;2023-06-14T06:12:42;99845.03;;;24.43;63.72
71149;BME280;59072;42.144;25.200;2023-06-14T06:15:08;99842.00;;;23.96;65.66
71149;BME280;59072;42.144;25.200;2023-06-14T06:17:37;99848.13;;;24.11;65.58
71149;BME280;59072;42.144;25.200;2023-06-14T06:20:03;99851.34;;;24.13;64.95
71149;BME280;59072;42.144;25.200;2023-06-14T06:22:30;99846.31;;;24.37;63.46
71149;BME280;59072;42.144;25.200;2023-06-14T06:24:56;99846.25;;;24.20;64.00
71149;BME280;59072;42.144;25.200;2023-06-14T06:27:21;99850.22;;;24.54;62.59
71149;BME280;59072;42.144;25.200;2023-06-14T06:29:46;99841.13;;;24.18;62.38
71149;BME280;59072;42.144;25.200;2023-06-14T06:32:14;99839.19;;;24.19;63.11
71149;BME280;59072;42.144;25.200;2023-06-14T06:34:39;99845.84;;;24.44;62.95
71149;BME280;59072;42.144;25.200;2023-06-14T06:37:05;99849.97;;;24.33;63.76
71149;BME280;59072;42.144;25.200;2023-06-14T06:39:31;99842.06;;;24.14;63.10
71149;BME280;59072;42.144;25.200;2023-06-14T06:41:56;99848.53;;;24.35;64.08
71149;BME280;59072;42.144;25.200;2023-06-14T06:44:22;99858.34;;;24.36;63.95
71149;BME280;59072;42.144;25.200;2023-06-14T06:46:47;99848.72;;;24.47;63.93
71149;BME280;59072;42.144;25.200;2023-06-14T06:49:13;99859.53;;;24.53;63.18
71149;BME280;59072;42.144;25.200;2023-06-14T06:51:41;99859.25;;;24.98;62.75
71149;BME280;59072;42.144;25.200;2023-06-14T06:54:08;99847.06;;;25.04;61.68
71149;BME280;59072;42.144;25.200;2023-06-14T06:56:34;99863.41;;;24.86;60.96
71149;BME280;59072;42.144;25.200;2023-06-14T06:59:00;99848.47;;;24.58;63.27
71149;BME280;59072;42.144;25.200;2023-06-14T07:01:25;99856.19;;;24.91;62.76
71149;BME280;59072;42.144;25.200;2023-06-14T07:03:51;99862.16;;;25.10;63.00
71149;BME280;59072;42.144;25.200;2023-06-14T07:06:17;99863.13;;;24.97;61.64
71149;BME280;59072;42.144;25.200;2023-06-14T07:08:45;99855.09;;;25.09;62.19
71149;BME280;59072;42.144;25.200;2023-06-14T07:11:13;99862.31;;;25.14;61.22
71149;BME280;59072;42.144;25.200;2023-06-14T07:13:38;99869.41;;;25.32;61.81
71149;BME280;59072;42.144;25.200;2023-06-14T07:16:04;99870.53;;;25.40;60.38
71149;BME280;59072;42.144;25.200;2023-06-14T07:18:29;99876.81;;;25.32;60.15
71149;BME280;59072;42.144;25.200;2023-06-14T07:20:56;99872.44;;;25.39;59.74
71149;BME280;59072;42.144;25.200;2023-06-14T07:23:23;99861.38;;;25.44;60.20
71149;BME280;59072;42.144;25.200;2023-06-14T07:25:48;99862.78;;;25.59;58.92
71149;BME280;59072;42.144;25.200;2023-06-14T07:28:14;99861.13;;;25.93;58.58
71149;BME280;59072;42.144;25.200;2023-06-14T07:30:39;99862.09;;;26.27;56.98
71149;BME280;59072;42.144;25.200;2023-06-14T07:33:05;99857.09;;;26.29;56.89
71149;BME280;59072;42.144;25.200;2023-06-14T07:35:31;99849.72;;;26.21;58.65
71149;BME280;59072;42.144;25.200;2023-06-14T07:37:56;99860.88;;;26.07;56.18
71149;BME280;59072;42.144;25.200;2023-06-14T07:40:22;99857.28;;;26.24;55.36
71149;BME280;59072;42.144;25.200;2023-06-14T07:42:47;99853.50;;;26.37;56.29
71149;BME280;59072;42.144;25.200;2023-06-14T07:45:14;99860.19;;;26.28;53.69
71149;BME280;59072;42.144;25.200;2023-06-14T07:47:40;99859.56;;;26.13;53.50
71149;BME280;59072;42.144;25.200;2023-06-14T07:50:06;99851.34;;;26.22;56.11
71149;BME280;59072;42.144;25.200;2023-06-14T07:52:31;99855.97;;;26.30;54.35
71149;BME280;59072;42.144;25.200;2023-06-14T07:54:56;99850.88;;;26.20;53.30
71149;BME280;59072;42.144;25.200;2023-06-14T07:57:22;99846.34;;;26.24;54.63
71149;BME280;59072;42.144;25.200;2023-06-14T07:59:47;99854.25;;;26.17;54.66
71149;BME280;59072;42.144;25.200;2023-06-14T08:02:13;99854.22;;;26.25;54.77
71149;BME280;59072;42.144;25.200;2023-06-14T08:04:38;99861.09;;;25.84;54.04
71149;BME280;59072;42.144;25.200;2023-06-14T08:07:04;99851.16;;;25.80;53.03
71149;BME280;59072;42.144;25.200;2023-06-14T08:09:29;99850.25;;;26.14;52.41
71149;BME280;59072;42.144;25.200;2023-06-14T08:11:56;99858.59;;;26.48;55.88
71149;BME280;59072;42.144;25.200;2023-06-14T08:14:21;99864.25;;;26.72;51.42
71149;BME280;59072;42.144;25.200;2023-06-14T08:16:47;99863.16;;;26.73;51.61
71149;BME280;59072;42.144;25.200;2023-06-14T08:19:13;99860.03;;;26.24;51.16
71149;BME280;59072;42.144;25.200;2023-06-14T08:21:38;99857.66;;;26.43;53.18
71149;BME280;59072;42.144;25.200;2023-06-14T08:24:05;99857.75;;;26.64;52.43
71149;BME280;59072;42.144;25.200;2023-06-14T08:26:30;99867.00;;;26.42;51.83
71149;BME280;59072;42.144;25.200;2023-06-14T08:28:57;99869.03;;;26.54;52.75
71149;BME280;59072;42.144;25.200;2023-06-14T08:31:23;99873.03;;;26.27;52.58
71149;BME280;59072;42.144;25.200;2023-06-14T08:33:49;99873.69;;;26.54;50.62
71149;BME280;59072;42.144;25.200;2023-06-14T08:36:14;99856.59;;;26.65;55.00
71149;BME280;59072;42.144;25.200;2023-06-14T08:38:40;99872.34;;;26.90;52.32
71149;BME280;59072;42.144;25.200;2023-06-14T08:41:05;99871.44;;;26.26;51.92
71149;BME280;59072;42.144;25.200;2023-06-14T08:43:33;99863.56;;;26.54;52.86
71149;BME280;59072;42.144;25.200;2023-06-14T08:46:02;99869.63;;;27.32;51.46
71149;BME280;59072;42.144;25.200;2023-06-14T08:48:28;99876.22;;;27.64;49.39
71149;BME280;59072;42.144;25.200;2023-06-14T08:50:55;99863.94;;;27.82;46.16
71149;BME280;59072;42.144;25.200;2023-06-14T08:53:28;99870.78;;;28.10;47.05
71149;BME280;59072;42.144;25.200;2023-06-14T08:55:54;99864.38;;;28.30;48.73
71149;BME280;59072;42.144;25.200;2023-06-14T08:58:21;99871.22;;;28.49;46.02
71149;BME280;59072;42.144;25.200;2023-06-14T09:00:49;99860.25;;;28.49;47.06
71149;BME280;59072;42.144;25.200;2023-06-14T09:03:18;99864.59;;;28.62;45.50
71149;BME280;59072;42.144;25.200;2023-06-14T09:05:45;99858.66;;;28.23;48.71
71149;BME280;59072;42.144;25.200;2023-06-14T09:08:12;99866.88;;;28.60;47.44
71149;BME280;59072;42.144;25.200;2023-06-14T09:10:39;99858.63;;;28.48;47.33
71149;BME280;59072;42.144;25.200;2023-06-14T09:13:06;99871.34;;;28.52;47.26
71149;BME280;59072;42.144;25.200;2023-06-14T09:15:32;99857.06;;;28.22;48.38
71149;BME280;59072;42.144;25.200;2023-06-14T09:17:58;99864.59;;;28.13;48.03
71149;BME280;59072;42.144;25.200;2023-06-14T09:20:24;99861.50;;;27.90;49.17
71149;BME280;59072;42.144;25.200;2023-06-14T09:22:50;99861.44;;;27.44;49.40
71149;BME280;59072;42.144;25.200;2023-06-14T09:25:16;99858.56;;;27.74;49.00
71149;BME280;59072;42.144;25.200;2023-06-14T09:27:43;99859.44;;;28.11;48.83
71149;BME280;59072;42.144;25.200;2023-06-14T09:30:09;99863.78;;;28.24;49.72
71149;BME280;59072;42.144;25.200;2023-06-14T09:32:37;99864.81;;;27.95;48.80
71149;BME280;59072;42.144;25.200;2023-06-14T09:35:04;99857.06;;;27.97;47.94
71149;BME280;59072;42.144;25.200;2023-06-14T09:37:31;99849.50;;;27.94;48.22
71149;BME280;59072;42.144;25.200;2023-06-14T09:39:58;99848.84;;;28.10;49.58
71149;BME280;59072;42.144;25.200;2023-06-14T09:42:24;99839.91;;;28.50;48.40
71149;BME280;59072;42.144;25.200;2023-06-14T09:44:54;99843.28;;;28.83;46.69
71149;BME280;59072;42.144;25.200;2023-06-14T09:47:21;99841.19;;;28.93;45.01
71149;BME280;59072;42.144;25.200;2023-06-14T09:49:47;99844.72;;;29.34;46.48
71149;BME280;59072;42.144;25.200;2023-06-14T09:52:16;99836.75;;;29.29;47.04
71149;BME280;59072;42.144;25.200;2023-06-14T09:54:43;99833.31;;;28.91;45.00
71149;BME280;59072;42.144;25.200;2023-06-14T09:57:11;99840.47;;;28.68;43.85
71149;BME280;59072;42.144;25.200;2023-06-14T09:59:44;99847.47;;;28.40;44.29
71149;BME280;59072;42.144;25.200;2023-06-14T10:02:29;99840.06;;;28.94;44.73
71149;BME280;59072;42.144;25.200;2023-06-14T10:05:08;99819.94;;;29.30;44.07
71149;BME280;59072;42.144;25.200;2023-06-14T10:08:04;99834.25;;;29.23;42.34
71149;BME280;59072;42.144;25.200;2023-06-14T10:10:30;99833.75;;;29.50;43.99
71149;BME280;59072;42.144;25.200;2023-06-14T10:12:56;99829.16;;;29.54;43.20
71149;BME280;59072;42.144;25.200;2023-06-14T10:18:22;99809.75;;;28.37;45.46
71149;BME280;59072;42.144;25.200;2023-06-14T10:21:16;99823.53;;;29.06;45.85
71149;BME280;59072;42.144;25.200;2023-06-14T10:23:45;99808.94;;;29.46;43.27
71149;BME280;59072;42.144;25.200;2023-06-14T10:26:19;99823.53;;;28.78;44.52
71149;BME280;59072;42.144;25.200;2023-06-14T10:29:07;99817.13;;;28.74;45.03
71149;BME280;59072;42.144;25.200;2023-06-14T10:34:08;99828.75;;;29.99;41.64
71149;BME280;59072;42.144;25.200;2023-06-14T10:36:34;99820.84;;;30.14;42.05
71149;BME280;59072;42.144;25.200;2023-06-14T10:39:18;99817.81;;;29.39;42.73
71149;BME280;59072;42.144;25.200;2023-06-14T10:41:53;99809.69;;;30.38;43.07
71149;BME280;59072;42.144;25.200;2023-06-14T10:46:48;99806.75;;;30.31;39.07
71149;BME280;59072;42.144;25.200;2023-06-14T10:49:18;99799.91;;;30.25;39.78
71149;BME280;59072;42.144;25.200;2023-06-14T10:51:50;99798.81;;;29.78;43.36
71149;BME280;59072;42.144;25.200;2023-06-14T10:54:17;99815.69;;;29.64;42.05
71149;BME280;59072;42.144;25.200;2023-06-14T10:56:52;99812.59;;;29.50;44.20
71149;BME280;59072;42.144;25.200;2023-06-14T10:59:19;99795.69;;;28.92;43.35
71149;BME280;59072;42.144;25.200;2023-06-14T11:01:58;99809.28;;;29.29;44.20
71149;BME280;59072;42.144;25.200;2023-06-14T11:05:03;99811.22;;;29.72;41.44
71149;BME280;59072;42.144;25.200;2023-06-14T11:07:55;99795.47;;;29.41;40.48
71149;BME280;59072;42.144;25.200;2023-06-14T11:10:38;99793.34;;;29.50;42.59
71149;BME280;59072;42.144;25.200;2023-06-14T11:13:03;99802.03;;;29.08;42.43
71149;BME280;59072;42.144;25.200;2023-06-14T11:15:30;99789.38;;;28.63;43.55
71149;BME280;59072;42.144;25.200;2023-06-14T11:17:56;99785.75;;;28.47;43.34
71149;BME280;59072;42.144;25.200;2023-06-14T11:20:25;99789.94;;;28.56;42.77
71149;BME280;59072;42.144;25.200;2023-06-14T11:22:52;99785.25;;;28.69;42.83
71149;BME280;59072;42.144;25.200;2023-06-14T11:25:18;99781.84;;;28.60;44.18
71149;BME280;59072;42.144;25.200;2023-06-14T11:27:44;99774.81;;;28.22;44.40
71149;BME280;59072;42.144;25.200;2023-06-14T11:30:11;99784.97;;;28.21;44.23
71149;BME280;59072;42.144;25.200;2023-06-14T11:32:37;99780.06;;;28.15;43.09
71149;BME280;59072;42.144;25.200;2023-06-14T11:35:03;99782.09;;;28.55;44.00
71149;BME280;59072;42.144;25.200;2023-06-14T11:37:30;99783.81;;;28.35;44.33
71149;BME280;59072;42.144;25.200;2023-06-14T11:39:57;99779.19;;;28.63;43.86
71149;BME280;59072;42.144;25.200;2023-06-14T11:42:24;99784.63;;;28.23;43.05
71149;BME280;59072;42.144;25.200;2023-06-14T11:44:50;99766.75;;;28.54;42.32
71149;BME280;59072;42.144;25.200;2023-06-14T11:47:15;99776.31;;;28.72;42.50
71149;BME280;59072;42.144;25.200;2023-06-14T11:49:41;99779.34;;;28.83;43.54
71149;BME280;59072;42.144;25.200;2023-06-14T11:52:07;99774.81;;;28.75;42.07
71149;BME280;59072;42.144;25.200;2023-06-14T11:54:33;99781.56;;;28.77;43.75
71149;BME280;59072;42.144;25.200;2023-06-14T11:56:58;99778.09;;;28.28;44.13
71149;BME280;59072;42.144;25.200;2023-06-14T11:59:24;99775.03;;;28.04;45.19
71149;BME280;59072;42.144;25.200;2023-06-14T12:01:53;99760.84;;;28.27;43.54
71149;BME280;59072;42.144;25.200;2023-06-14T12:04:29;99773.25;;;28.61;43.67
71149;BME280;59072;42.144;25.200;2023-06-14T12:06:55;99768.53;;;28.74;43.65
71149;BME280;59072;42.144;25.200;2023-06-14T12:09:21;99774.56;;;28.80;41.15
71149;BME280;59072;42.144;25.200;2023-06-14T12:11:49;99770.47;;;28.74;41.77
71149;BME280;59072;42.144;25.200;2023-06-14T12:14:15;99768.53;;;28.74;43.30
71149;BME280;59072;42.144;25.200;2023-06-14T12:16:40;99771.38;;;29.06;42.90
71149;BME280;59072;42.144;25.200;2023-06-14T12:19:16;99775.72;;;29.35;42.17
71149;BME280;59072;42.144;25.200;2023-06-14T12:21:43;99775.66;;;29.63;41.95
71149;BME280;59072;42.144;25.200;2023-06-14T12:24:12;99770.03;;;29.44;42.30
71149;BME280;59072;42.144;25.200;2023-06-14T12:26:38;99750.66;;;29.37;41.37
71149;BME280;59072;42.144;25.200;2023-06-14T12:29:06;99762.91;;;29.11;41.29
71149;BME280;59072;42.144;25.200;2023-06-14T12:31:35;99757.78;;;29.25;40.94
71149;BME280;59072;42.144;25.200;2023-06-14T12:34:00;99752.47;;;29.17;41.44
71149;BME280;59072;42.144;25.200;2023-06-14T12:36:26;99753.66;;;29.48;42.63
71149;BME280;59072;42.144;25.200;2023-06-14T12:38:52;99746.41;;;29.55;41.88
71149;BME280;59072;42.144;25.200;2023-06-14T12:41:21;99736.88;;;29.69;41.32
71149;BME280;59072;42.144;25.200;2023-06-14T12:43:47;99743.63;;;29.87;41.59
71149;BME280;59072;42.144;25.200;2023-06-14T12:46:14;99741.28;;;29.86;40.26
71149;BME280;59072;42.144;25.200;2023-06-14T12:48:40;99732.56;;;29.68;40.64
71149;BME280;59072;42.144;25.200;2023-06-14T12:51:05;99737.16;;;29.95;39.84
71149;BME280;59072;42.144;25.200;2023-06-14T12:53:30;99739.47;;;29.61;40.76
71149;BME280;59072;42.144;25.200;2023-06-14T12:55:56;99729.56;;;29.41;41.17
71149;BME280;59072;42.144;25.200;2023-06-14T12:58:21;99730.66;;;30.03;40.04
71149;BME280;59072;42.144;25.200;2023-06-14T13:00:49;99725.38;;;31.08;39.72